Time;durP1;ratioP1;P1;durP2;ratioP2;P2;SDS_P1;SDS_P2;PMS_P1;PMS_P2;Temp;Humidity;BMP_temperature;BMP_pressure;BME280_temperature;BME280_humidity;BME280_pressure;Samples;Min_cycle;Max_cycle;Signal;HPM_P1;HPM_P2
2023/09/18 00:01:01;;;;;;;3.03;2.80;;;;;;;21.79;60.44;98259.94;5073080;28;39408;-78
2023/09/18 00:03:28;;;;;;;3.23;2.93;;;;;;;21.67;60.12;98248.75;5089882;28;42167;-76
2023/09/18 00:05:56;;;;;;;3.20;2.90;;;;;;;21.77;60.36;98262.81;5089983;28;42823;-78
2023/09/18 00:08:23;;;;;;;3.00;2.80;;;;;;;21.77;60.47;98260.13;5089449;28;41183;-77
2023/09/18 00:10:55;;;;;;;3.30;3.00;;;;;;;21.78;60.71;98266.34;5091361;28;40588;-76
2023/09/18 00:13:23;;;;;;;4.03;3.30;;;;;;;21.75;60.92;98253.28;5073764;28;40761;-78
2023/09/18 00:15:56;;;;;;;3.30;2.87;;;;;;;21.80;60.67;98264.31;5091042;28;43111;-78
2023/09/18 00:18:25;;;;;;;3.20;2.90;;;;;;;21.79;61.11;98263.50;5090727;28;43246;-76
2023/09/18 00:20:54;;;;;;;3.40;3.10;;;;;;;21.79;60.72;98258.09;5090925;28;38823;-77
2023/09/18 00:23:21;;;;;;;3.40;3.10;;;;;;;21.79;61.19;98241.09;5090850;28;41674;-77
2023/09/18 00:25:49;;;;;;;2.90;2.70;;;;;;;21.79;60.83;98247.31;5073872;28;42767;-77
2023/09/18 00:28:16;;;;;;;3.27;2.80;;;;;;;21.72;61.08;98237.44;5073935;28;41497;-76
2023/09/18 00:30:48;;;;;;;3.27;2.97;;;;;;;;;;5090893;28;41014;-77
2023/09/18 00:33:19;;;;;;;3.07;2.77;;;;;;;21.61;61.68;98224.41;5090389;28;41874;-76
2023/09/18 00:35:49;;;;;;;3.07;2.87;;;;;;;21.68;61.81;98236.97;5073730;28;41820;-76
2023/09/18 00:38:17;;;;;;;3.37;3.07;;;;;;;21.72;61.28;98254.47;5073848;28;41304;-77
2023/09/18 00:40:44;;;;;;;3.50;3.20;;;;;;;21.59;61.56;98229.97;5091710;28;40953;-79
2023/09/18 00:43:12;;;;;;;2.67;2.43;;;;;;;21.68;61.48;98244.22;5071495;28;40390;-76
2023/09/18 00:45:45;;;;;;;2.90;2.63;;;;;;;21.66;61.81;98236.31;5072536;28;41778;-77
2023/09/18 00:48:13;;;;;;;2.90;2.70;;;;;;;21.67;61.48;98243.38;5089932;28;43271;-76
2023/09/18 00:50:41;;;;;;;3.17;2.90;;;;;;;21.66;61.74;98241.69;5072429;28;39279;-78
2023/09/18 00:53:14;;;;;;;3.33;3.03;;;;;;;21.51;61.86;98217.38;5089169;28;41628;-76
2023/09/18 00:55:42;;;;;;;4.30;3.40;;;;;;;21.52;62.44;98220.91;5086250;28;43758;-78
2023/09/18 00:58:10;;;;;;;4.27;2.40;;;;;;;21.61;62.64;98232.50;5072022;28;42187;-79
2023/09/18 01:00:38;;;;;;;3.77;3.30;;;;;;;21.60;62.07;98225.44;5072303;28;38990;-78
2023/09/18 01:03:06;;;;;;;3.13;2.93;;;;;;;21.58;62.42;98222.91;5089281;28;42542;-77
2023/09/18 01:05:35;;;;;;;3.17;2.97;;;;;;;21.56;62.40;98224.94;5089271;28;43575;-78
2023/09/18 01:08:04;;;;;;;4.30;3.03;;;;;;;21.56;62.31;98224.94;5074326;28;44161;-76
2023/09/18 01:10:41;;;;;;;2.93;2.63;;;;;;;21.55;62.41;98223.25;5093974;28;40174;-78
2023/09/18 01:13:15;;;;;;;3.13;2.83;;;;;;;21.54;62.92;98216.19;5076005;28;40728;-77
2023/09/18 01:15:49;;;;;;;3.20;2.90;;;;;;;21.51;62.63;98216.59;5090784;28;42738;-77
2023/09/18 01:18:18;;;;;;;2.90;2.60;;;;;;;21.47;62.61;98215.25;5076896;28;42354;-77
2023/09/18 01:20:45;;;;;;;3.03;2.83;;;;;;;21.48;62.74;98204.31;5076820;28;40156;-78
2023/09/18 01:23:15;;;;;;;3.00;2.80;;;;;;;21.45;62.81;98198.44;5076473;28;40622;-78
2023/09/18 01:25:42;;;;;;;2.90;2.70;;;;;;;21.46;62.89;98197.41;5076454;28;42836;-78
2023/09/18 01:28:10;;;;;;;4.50;3.33;;;;;;;21.44;62.93;98194.91;5076167;28;41018;-77
2023/09/18 01:30:38;;;;;;;2.70;2.50;;;;;;;21.42;63.04;98193.41;5076668;28;39167;-76
2023/09/18 01:33:06;;;;;;;3.10;2.80;;;;;;;21.41;63.20;98192.56;5076293;28;40713;-76
2023/09/18 01:35:35;;;;;;;3.30;3.00;;;;;;;21.37;63.24;98193.97;5076675;28;42852;-76
2023/09/18 01:38:06;;;;;;;3.30;3.00;;;;;;;21.39;63.12;98202.66;5076425;28;42194;-75
2023/09/18 01:40:35;;;;;;;3.33;3.00;;;;;;;21.35;63.46;98184.38;5094596;28;40971;-75
2023/09/18 01:43:03;;;;;;;3.43;3.13;;;;;;;21.37;63.63;98198.50;5074135;28;40479;-76
2023/09/18 01:45:31;;;;;;;3.50;3.20;;;;;;;21.34;63.97;98198.84;5092300;28;42804;-75
2023/09/18 01:47:59;;;;;;;3.20;2.90;;;;;;;21.04;63.67;98150.22;5074814;28;41070;-78
2023/09/18 01:50:27;;;;;;;3.47;3.17;;;;;;;21.10;64.19;98152.22;5092292;28;40023;-76
2023/09/18 01:52:54;;;;;;;2.93;2.73;;;;;;;21.29;63.74;98190.47;5075159;28;41075;-76
2023/09/18 01:55:22;;;;;;;3.30;3.10;;;;;;;21.15;63.74;98157.88;5091834;28;42290;-76
2023/09/18 01:57:51;;;;;;;2.90;2.70;;;;;;;21.22;64.14;98165.28;5074649;28;42211;-77
2023/09/18 02:00:19;;;;;;;3.70;3.10;;;;;;;21.13;63.92;98168.00;5075060;28;40316;-76
2023/09/18 02:02:46;;;;;;;3.47;3.17;;;;;;;21.20;63.79;98188.84;5091740;28;41834;-76
2023/09/18 02:05:14;;;;;;;3.20;2.90;;;;;;;21.17;63.90;98174.69;5074970;28;41972;-77
2023/09/18 02:07:41;;;;;;;3.20;2.97;;;;;;;21.17;64.53;98166.63;5091065;28;42410;-77
2023/09/18 02:10:12;;;;;;;3.40;3.10;;;;;;;21.15;64.37;98167.81;5074894;28;38813;-76
2023/09/18 02:12:40;;;;;;;3.30;3.00;;;;;;;21.12;64.35;98163.66;5074934;28;40610;-78
2023/09/18 02:15:11;;;;;;;3.23;2.93;;;;;;;21.12;64.36;98173.56;5076156;28;42390;-76
2023/09/18 02:17:38;;;;;;;4.17;2.97;;;;;;;21.10;64.34;98170.22;5074901;28;41690;-76
2023/09/18 02:20:11;;;;;;;3.40;3.07;;;;;;;21.09;64.95;98161.31;5075804;28;40322;-76
2023/09/18 02:22:39;;;;;;;3.20;3.00;;;;;;;21.08;65.07;98151.53;5075704;28;40210;-76
2023/09/18 02:25:08;;;;;;;3.80;3.43;;;;;;;21.10;64.87;98148.69;5075611;28;42814;-77
2023/09/18 02:27:35;;;;;;;3.73;3.23;;;;;;;21.11;64.86;98143.13;5075329;28;42819;-76
2023/09/18 02:30:04;;;;;;;3.93;3.37;;;;;;;21.11;64.55;98134.19;5075629;28;39960;-77
2023/09/18 02:32:34;;;;;;;3.30;3.00;;;;;;;21.20;64.92;98132.31;5075402;28;41649;-77
2023/09/18 02:35:02;;;;;;;3.33;3.03;;;;;;;21.25;64.58;98121.84;5092491;28;42781;-76
2023/09/18 02:37:30;;;;;;;3.83;3.53;;;;;;;21.30;64.44;98133.72;5075140;28;42504;-77
2023/09/18 02:39:57;;;;;;;4.00;3.60;;;;;;;21.16;64.38;98099.47;5075361;28;39107;-77
2023/09/18 02:42:25;;;;;;;4.00;3.37;;;;;;;21.30;64.52;98105.97;5091017;28;41721;-77
2023/09/18 02:44:53;;;;;;;3.37;3.07;;;;;;;21.41;64.68;98113.59;5074235;28;41355;-77
2023/09/18 02:47:20;;;;;;;4.07;3.60;;;;;;;21.48;64.81;98111.88;5074227;28;42162;-78
2023/09/18 02:49:50;;;;;;;3.77;3.47;;;;;;;21.51;65.35;98114.19;5091357;28;40931;-77
2023/09/18 02:52:17;;;;;;;3.60;3.30;;;;;;;21.54;65.47;98102.19;5073986;28;40820;-78
2023/09/18 02:54:45;;;;;;;4.03;3.63;;;;;;;21.56;66.55;98098.31;5074095;28;42829;-76
2023/09/18 02:57:13;;;;;;;3.50;3.20;;;;;;;21.58;65.86;98100.81;5090713;28;42067;-78
2023/09/18 02:59:41;;;;;;;3.90;3.50;;;;;;;21.60;66.43;98104.16;5074150;28;40484;-77
2023/09/18 03:02:09;;;;;;;3.93;3.53;;;;;;;21.58;66.44;98104.34;5073704;28;40184;-80
2023/09/18 03:04:37;;;;;;;4.37;3.97;;;;;;;21.56;66.38;98095.59;5074040;28;41699;-76
2023/09/18 03:07:06;;;;;;;4.20;3.80;;;;;;;21.56;66.45;98098.31;5090328;28;42219;-77
2023/09/18 03:09:35;;;;;;;4.60;4.10;;;;;;;21.41;66.47;98076.72;5090849;28;39746;-75
2023/09/18 03:12:03;;;;;;;3.93;3.60;;;;;;;21.56;66.02;98110.94;5073572;28;40864;-77
2023/09/18 03:14:30;;;;;;;3.43;3.10;;;;;;;21.59;66.38;98116.81;5075052;28;42639;-77
2023/09/18 03:16:58;;;;;;;3.90;3.47;;;;;;;21.63;65.88;98139.69;5074650;28;42469;-77
2023/09/18 03:19:26;;;;;;;4.23;3.83;;;;;;;21.67;65.57;98167.91;5091928;28;40199;-78
2023/09/18 03:21:55;;;;;;;4.93;3.83;;;;;;;21.70;66.21;98197.19;5074402;28;41057;-78
2023/09/18 03:24:24;;;;;;;4.93;3.97;;;;;;;21.64;68.07;98240.19;5091690;28;42788;-75
2023/09/18 03:26:52;;;;;;;4.33;3.73;;;;;;;21.34;68.98;98205.09;5074449;28;41294;-75
2023/09/18 03:29:19;;;;;;;5.03;3.63;;;;;;;21.35;68.82;98216.69;5092170;28;39727;-78
2023/09/18 03:31:47;;;;;;;3.00;2.80;;;;;;;21.15;69.16;98218.97;5092789;28;41550;-78
2023/09/18 03:34:14;;;;;;;3.90;3.33;;;;;;;21.14;69.56;98257.72;5091626;28;43679;-78
2023/09/18 03:36:42;;;;;;;4.90;3.53;;;;;;;20.91;72.04;98206.50;5091668;28;42237;-77
2023/09/18 03:39:10;;;;;;;4.63;4.00;;;;;;;20.89;72.12;98232.78;5074560;28;38941;-77
2023/09/18 03:41:39;;;;;;;4.40;4.00;;;;;;;20.84;73.14;98235.16;5090240;28;41726;-76
2023/09/18 03:44:07;;;;;;;4.10;3.70;;;;;;;20.82;73.77;98196.78;5090080;28;43748;-76
2023/09/18 03:46:34;;;;;;;4.10;3.77;;;;;;;20.81;73.65;98219.34;5090111;28;43304;-78
2023/09/18 03:49:02;;;;;;;4.57;4.13;;;;;;;20.63;73.78;98164.97;5073477;28;38927;-78
2023/09/18 03:51:32;;;;;;;4.67;3.90;;;;;;;20.75;73.97;98172.47;5073179;28;40999;-76
2023/09/18 03:53:59;;;;;;;3.53;3.23;;;;;;;20.74;73.49;98143.03;5090159;28;42840;-76
2023/09/18 03:56:27;;;;;;;4.47;3.53;;;;;;;20.80;74.44;98136.94;5073167;28;42291;-76
2023/09/18 03:58:58;;;;;;;3.70;3.40;;;;;;;20.79;75.48;98152.22;5073275;28;39086;-77
2023/09/18 04:01:25;;;;;;;4.50;4.03;;;;;;;20.77;75.50;98146.19;5073472;28;40759;-77
2023/09/18 04:03:54;;;;;;;5.10;4.70;;;;;;;20.76;75.42;98157.16;5090183;28;43524;-78
2023/09/18 04:06:24;;;;;;;4.93;4.43;;;;;;;20.68;76.42;98116.81;5073236;28;41180;-78
2023/09/18 04:08:51;;;;;;;4.60;3.57;;;;;;;20.72;75.62;98118.16;5072946;28;41254;-79
2023/09/18 04:11:22;;;;;;;3.87;3.47;;;;;;;20.71;75.56;98105.72;5089836;28;42443;-77
2023/09/18 04:13:50;;;;;;;3.83;3.53;;;;;;;20.76;74.85;98106.03;5090823;28;43700;-77
2023/09/18 04:16:19;;;;;;;4.63;4.10;;;;;;;20.76;75.90;98103.34;5074162;28;41075;-79
2023/09/18 04:18:46;;;;;;;5.40;4.37;;;;;;;20.52;75.48;98068.53;5073886;28;39726;-75
2023/09/18 04:21:14;;;;;;;3.63;3.33;;;;;;;20.76;74.59;98103.34;5090933;28;42793;-77
2023/09/18 04:23:42;;;;;;;3.77;3.43;;;;;;;20.75;74.68;98107.03;5074006;28;41712;-78
2023/09/18 04:26:10;;;;;;;3.93;3.53;;;;;;;20.75;74.05;98107.03;5090878;28;42844;-74
2023/09/18 04:28:38;;;;;;;3.67;3.37;;;;;;;20.75;74.13;98107.03;5090940;28;39916;-78
2023/09/18 04:31:05;;;;;;;5.13;4.03;;;;;;;20.76;73.89;98119.47;5091039;28;41684;-75
2023/09/18 04:33:34;;;;;;;4.53;3.60;;;;;;;20.78;74.37;98125.50;5090799;28;42850;-75
2023/09/18 04:36:02;;;;;;;5.07;4.20;;;;;;;20.49;76.16;98064.31;5073995;28;40883;-77
2023/09/18 04:38:29;;;;;;;5.93;4.90;;;;;;;20.68;77.04;98117.66;5073895;28;38881;-74
2023/09/18 04:41:00;;;;;;;4.57;4.17;;;;;;;20.75;77.50;98131.25;5074446;28;40462;-77
2023/09/18 04:43:29;;;;;;;4.80;4.30;;;;;;;20.75;77.53;98133.94;5075598;28;41697;-78
2023/09/18 04:45:57;;;;;;;5.87;4.63;;;;;;;20.80;77.11;98143.16;5093428;28;41983;-78
2023/09/18 04:48:25;;;;;;;4.30;3.90;;;;;;;20.83;76.57;98141.97;5093279;28;41114;-80
2023/09/18 04:50:54;;;;;;;5.93;4.30;;;;;;;20.88;77.44;98141.44;5076200;28;40998;-76
2023/09/18 04:53:21;;;;;;;5.30;4.27;;;;;;;20.91;76.80;98144.59;5092998;28;42738;-78
2023/09/18 04:55:50;;;;;;;4.73;3.60;;;;;;;20.96;76.29;98147.59;5094275;28;43118;-77
2023/09/18 04:58:17;;;;;;;5.43;4.07;;;;;;;20.93;76.43;98137.19;5076151;28;39993;-74
2023/09/18 05:00:46;;;;;;;5.03;4.53;;;;;;;21.03;76.61;98137.78;5076116;28;40715;-79
2023/09/18 05:03:13;;;;;;;4.97;4.57;;;;;;;21.03;76.67;98162.00;5075902;28;41938;-78
2023/09/18 05:05:41;;;;;;;4.70;4.30;;;;;;;21.06;76.18;98167.03;5076270;28;42571;-77
2023/09/18 05:08:10;;;;;;;4.23;3.83;;;;;;;21.07;75.90;98209.09;5075604;28;38616;-75
2023/09/18 05:10:38;;;;;;;6.60;4.17;;;;;;;21.08;75.93;98208.09;5092506;28;41715;-76
2023/09/18 05:13:06;;;;;;;4.50;4.07;;;;;;;20.84;76.11;98185.84;5075600;28;44351;-76
2023/09/18 05:15:34;;;;;;;5.33;4.30;;;;;;;21.09;75.61;98215.16;5094588;28;42339;-77
2023/09/18 05:18:03;;;;;;;5.83;5.03;;;;;;;21.14;76.27;98226.22;5093746;28;39624;-76
2023/09/18 05:20:31;;;;;;;5.77;4.77;;;;;;;21.15;76.60;98227.88;5093270;28;41761;-78
2023/09/18 05:23:00;;;;;;;4.17;3.67;;;;;;;21.18;76.48;98237.47;5094250;28;43107;-78
2023/09/18 05:25:31;;;;;;;5.53;4.83;;;;;;;21.19;76.20;98232.97;5076263;28;42269;-76
2023/09/18 05:28:01;;;;;;;4.10;3.70;;;;;;;21.25;75.65;98240.34;5093633;28;39928;-78
2023/09/18 05:30:30;;;;;;;4.67;4.03;;;;;;;21.28;75.60;98231.88;5093511;28;41810;-74
2023/09/18 05:33:04;;;;;;;4.17;3.53;;;;;;;21.22;75.12;98211.06;5076008;28;41941;-77
2023/09/18 05:35:31;;;;;;;6.43;4.13;;;;;;;21.28;75.02;98219.25;5090049;28;43580;-79
2023/09/18 05:37:59;;;;;;;4.67;4.07;;;;;;;21.33;74.78;98214.19;5092803;28;39816;-77
2023/09/18 05:40:29;;;;;;;4.57;4.03;;;;;;;21.36;74.71;98207.59;5093343;28;42116;-79
2023/09/18 05:42:57;;;;;;;4.27;3.73;;;;;;;21.37;74.74;98177.78;5090764;28;42580;-76
2023/09/18 05:45:26;;;;;;;3.57;3.27;;;;;;;21.39;74.27;98147.94;5093002;28;42263;-74
2023/09/18 05:47:54;;;;;;;4.77;4.27;;;;;;;21.38;76.91;98130.16;5074966;28;39012;-77
2023/09/18 05:50:22;;;;;;;4.80;4.23;;;;;;;21.34;76.72;98131.50;5075231;28;40252;-75
2023/09/18 05:52:50;;;;;;;4.97;3.93;;;;;;;21.33;75.86;98146.00;5091842;28;42962;-77
2023/09/18 05:55:17;;;;;;;4.60;3.87;;;;;;;21.25;76.38;98135.31;5091918;28;42409;-76
2023/09/18 05:57:46;;;;;;;4.03;3.47;;;;;;;21.15;76.64;98138.19;5091718;28;40111;-78
2023/09/18 06:00:15;;;;;;;3.77;3.47;;;;;;;21.08;76.94;98115.69;5074796;28;41043;-78
2023/09/18 06:02:43;;;;;;;3.77;3.37;;;;;;;21.05;77.38;98087.28;5090474;28;43757;-81
2023/09/18 06:05:12;;;;;;;4.93;3.80;;;;;;;20.97;78.69;98049.66;5091859;28;42390;-80
2023/09/18 06:07:39;;;;;;;4.87;3.70;;;;;;;20.90;80.31;98034.41;5091565;28;39843;-84
2023/09/18 06:10:08;;;;;;;5.17;3.97;;;;;;;21.06;80.97;98045.03;5091800;28;43001;-82
2023/09/18 06:12:35;;;;;;;5.63;4.80;;;;;;;20.98;82.23;98010.13;5092125;28;42902;-84
2023/09/18 06:15:05;;;;;;;5.97;5.37;;;;;;;21.04;82.50;98053.31;5093073;28;42795;-84
2023/09/18 06:17:33;;;;;;;5.17;4.63;;;;;;;20.80;81.80;97999.69;5091754;28;42173;-82
2023/09/18 06:20:00;;;;;;;4.93;4.50;;;;;;;20.90;83.13;98000.25;5075208;28;40739;-80
2023/09/18 06:22:28;;;;;;;6.77;4.80;;;;;;;21.07;82.53;98030.56;5091768;28;41936;-81
2023/09/18 06:24:55;;;;;;;6.30;4.93;;;;;;;21.11;82.51;98029.19;5090138;28;43290;-81
2023/09/18 06:27:23;;;;;;;4.50;3.90;;;;;;;21.20;81.62;98024.59;5092218;28;40810;-80
2023/09/18 06:29:50;;;;;;;4.27;3.77;;;;;;;21.21;81.37;98026.28;5074193;28;40645;-83
2023/09/18 06:32:19;;;;;;;4.27;3.77;;;;;;;21.28;80.58;98021.81;5090323;28;41814;-77
2023/09/18 06:34:47;;;;;;;3.87;3.37;;;;;;;21.51;79.65;98054.94;5074315;28;42026;-79
2023/09/18 06:37:15;;;;;;;3.70;3.40;;;;;;;21.63;79.01;98053.44;5091760;28;39994;-81
2023/09/18 06:39:43;;;;;;;4.00;3.53;;;;;;;21.75;78.65;98056.53;5074090;28;42069;-77
2023/09/18 06:42:10;;;;;;;4.73;3.40;;;;;;;21.84;78.30;98050.84;5090173;28;42868;-81
2023/09/18 06:44:39;;;;;;;4.30;3.90;;;;;;;22.04;77.38;98050.28;5090988;28;41685;-81
2023/09/18 06:47:06;;;;;;;4.40;4.00;;;;;;;22.16;77.67;98043.38;5095795;28;40763;-77
2023/09/18 06:49:35;;;;;;;4.30;3.90;;;;;;;21.97;77.21;98014.28;5099453;28;40458;-79
2023/09/18 06:52:04;;;;;;;4.60;4.00;;;;;;;22.41;76.41;98073.56;5091561;28;41694;-81
2023/09/18 06:54:31;;;;;;;4.83;3.93;;;;;;;22.49;75.89;98071.59;5074512;28;41348;-80
2023/09/18 06:56:59;;;;;;;4.97;3.67;;;;;;;22.58;75.69;98075.00;5091096;28;41119;-81
2023/09/18 06:59:26;;;;;;;4.53;3.60;;;;;;;22.67;76.14;98083.81;5090316;28;40624;-82
2023/09/18 07:01:54;;;;;;;3.60;3.30;;;;;;;22.72;75.25;98097.59;5073559;28;41823;-81
2023/09/18 07:04:21;;;;;;;4.40;4.00;;;;;;;22.79;74.72;98109.31;5073644;28;41076;-80
2023/09/18 07:06:50;;;;;;;4.50;3.73;;;;;;;22.86;75.15;98118.34;5073415;28;38884;-80
2023/09/18 07:09:19;;;;;;;4.23;3.83;;;;;;;22.87;75.28;98106.50;5090355;28;40781;-83
2023/09/18 07:11:46;;;;;;;5.37;3.97;;;;;;;23.08;74.31;98141.63;5073594;28;42002;-81
2023/09/18 07:14:14;;;;;;;6.10;4.67;;;;;;;23.09;74.25;98132.50;5074432;28;41169;-87
2023/09/18 07:16:41;;;;;;;8.63;4.37;;;;;;;23.27;73.86;98151.75;5074669;28;41132;-84
2023/09/18 07:19:11;;;;;;;5.47;4.70;;;;;;;23.26;73.75;98155.50;5090656;28;42002;-81
2023/09/18 07:21:41;;;;;;;4.40;4.00;;;;;;;23.17;73.36;98151.25;5092256;28;43025;-83
2023/09/18 07:24:16;;;;;;;4.50;3.77;;;;;;;23.17;73.44;98147.72;5074502;28;40932;-81
2023/09/18 07:26:47;;;;;;;4.30;3.57;;;;;;;23.19;73.14;98165.41;5088690;28;40662;-80
2023/09/18 07:29:16;;;;;;;3.60;3.30;;;;;;;23.13;73.18;98149.97;5074150;28;41075;-79
2023/09/18 07:31:43;;;;;;;5.70;3.43;;;;;;;23.03;73.12;98159.41;5073714;28;42050;-83
2023/09/18 07:34:11;;;;;;;3.37;3.07;;;;;;;22.88;73.40;98140.56;5073744;28;40771;-81
2023/09/18 07:36:39;;;;;;;4.83;3.63;;;;;;;22.91;73.03;98170.72;5090882;28;40527;-77
2023/09/18 07:39:07;;;;;;;3.53;3.23;;;;;;;22.85;72.91;98179.59;5073564;28;41175;-78
2023/09/18 07:41:36;;;;;;;3.30;2.93;;;;;;;22.82;73.31;98173.72;5089411;28;42729;-77
2023/09/18 07:44:03;;;;;;;4.80;3.37;;;;;;;22.80;72.84;98178.47;5088379;28;42081;-78
2023/09/18 07:46:31;;;;;;;6.03;3.60;;;;;;;22.78;72.87;98177.81;5089759;28;40156;-80
2023/09/18 07:48:58;;;;;;;5.23;3.23;;;;;;;22.70;73.08;98169.81;5072969;28;41265;-84
2023/09/18 07:51:26;;;;;;;6.00;3.37;;;;;;;22.74;73.18;98177.38;5090544;28;42252;-86
2023/09/18 07:53:53;;;;;;;3.10;2.80;;;;;;;22.58;73.46;98164.91;5073291;28;42168;-83
2023/09/18 07:56:21;;;;;;;4.47;3.20;;;;;;;22.52;73.47;98162.13;5090532;28;39191;-85
2023/09/18 07:58:50;;;;;;;3.50;3.13;;;;;;;22.62;73.33;98178.03;5090262;28;41289;-83
2023/09/18 08:01:18;;;;;;;5.10;3.37;;;;;;;22.56;73.34;98179.63;5089870;28;41367;-79
2023/09/18 08:03:45;;;;;;;3.27;2.83;;;;;;;22.49;73.64;98187.63;5089452;28;41291;-85
2023/09/18 08:06:14;;;;;;;3.97;2.93;;;;;;;22.35;73.81;98177.69;5073185;28;40103;-83
2023/09/18 08:08:42;;;;;;;3.17;2.77;;;;;;;22.35;73.95;98196.56;5089830;28;40957;-84
2023/09/18 08:11:09;;;;;;;4.20;2.87;;;;;;;22.41;74.20;98209.31;5089854;28;42426;-85
2023/09/18 08:13:38;;;;;;;5.10;2.87;;;;;;;22.37;74.37;98194.53;5073908;28;41228;-82
2023/09/18 08:16:07;;;;;;;4.23;3.10;;;;;;;22.51;74.66;98209.84;5090599;28;38752;-84
2023/09/18 08:18:35;;;;;;;6.10;3.33;;;;;;;22.51;75.34;98196.34;5074506;28;40968;-83
2023/09/18 08:21:02;;;;;;;6.23;2.80;;;;;;;22.62;75.31;98215.81;5073899;28;42780;-90
2023/09/18 08:23:32;;;;;;;4.33;3.53;;;;;;;22.87;74.68;98230.72;5074069;28;41321;-83
2023/09/18 08:26:01;;;;;;;3.93;3.03;;;;;;;23.09;74.84;98234.28;5073360;28;40153;-82
2023/09/18 08:28:28;;;;;;;3.83;2.87;;;;;;;23.26;74.70;98208.69;5090419;28;42077;-84
2023/09/18 08:30:56;;;;;;;3.83;2.67;;;;;;;23.65;74.78;98224.50;5073332;28;41555;-85
2023/09/18 08:33:25;;;;;;;3.07;2.77;;;;;;;23.88;73.45;98230.53;5089788;28;42430;-87
2023/09/18 08:35:53;;;;;;;4.50;2.80;;;;;;;24.07;72.16;98236.28;5087962;28;39635;-87
2023/09/18 08:38:21;;;;;;;3.30;2.90;;;;;;;24.25;71.65;98221.25;5072099;28;40655;-86
2023/09/18 08:40:49;;;;;;;4.30;2.70;;;;;;;24.47;70.22;98234.72;5090781;28;42467;-81
2023/09/18 08:43:18;;;;;;;3.17;2.30;;;;;;;24.65;69.79;98233.16;5072896;28;42771;-82
2023/09/18 08:45:52;;;;;;;3.23;2.10;;;;;;;24.67;68.93;98217.56;5072634;28;39141;-85
2023/09/18 08:48:19;;;;;;;2.30;2.10;;;;;;;24.81;68.07;98223.03;5089473;28;41670;-78
2023/09/18 08:50:49;;;;;;;3.00;2.43;;;;;;;24.86;68.10;98224.06;5088961;28;41575;-85
2023/09/18 08:53:16;;;;;;;2.47;2.07;;;;;;;24.82;68.30;98208.44;5072348;28;41403;-86
2023/09/18 08:55:44;;;;;;;2.70;2.10;;;;;;;24.71;68.20;98196.34;5089541;28;40999;-85
2023/09/18 08:58:12;;;;;;;3.53;2.23;;;;;;;24.76;68.00;98209.25;5089114;28;42165;-78
2023/09/18 09:00:42;;;;;;;2.80;2.10;;;;;;;24.59;68.04;98209.59;5088572;28;44049;-77
2023/09/18 09:03:10;;;;;;;4.87;2.20;;;;;;;24.30;68.48;98207.97;5072099;28;42492;-80
2023/09/18 09:05:37;;;;;;;3.57;2.00;;;;;;;24.05;69.98;98198.63;5089264;28;40767;-82
2023/09/18 09:08:07;;;;;;;4.47;1.90;;;;;;;23.91;70.71;98181.44;5071440;28;41220;-82
2023/09/18 09:10:34;;;;;;;2.80;2.00;;;;;;;23.90;71.55;98185.19;5089308;28;41891;-84
2023/09/18 09:13:03;;;;;;;1.97;1.87;;;;;;;23.92;71.75;98187.69;5089422;28;42275;-83
2023/09/18 09:15:35;;;;;;;3.93;1.87;;;;;;;23.99;71.58;98177.75;5090711;28;40943;-83
2023/09/18 09:18:05;;;;;;;3.10;1.60;;;;;;;24.10;71.52;98152.03;5089164;28;41676;-80
2023/09/18 09:20:33;;;;;;;2.57;1.90;;;;;;;24.33;72.11;98158.03;5090215;28;44385;-80
2023/09/18 09:23:02;;;;;;;2.77;1.60;;;;;;;24.40;71.07;98156.19;5072618;28;42687;-82
2023/09/18 09:25:33;;;;;;;5.07;2.07;;;;;;;24.54;70.62;98166.03;5089954;28;39240;-79
2023/09/18 09:28:01;;;;;;;2.83;1.77;;;;;;;24.64;70.95;98155.66;5073157;28;41080;-82
2023/09/18 09:30:30;;;;;;;5.00;1.73;;;;;;;24.79;70.65;98168.22;5093533;28;43851;-83
2023/09/18 09:32:58;;;;;;;3.57;2.30;;;;;;;24.95;70.12;98179.56;5092778;28;42955;-82
2023/09/18 09:35:28;;;;;;;3.13;1.60;;;;;;;25.16;68.67;98175.88;5093240;28;38752;-82
2023/09/18 09:37:58;;;;;;;3.07;1.70;;;;;;;25.53;67.90;98179.06;5075408;28;40854;-80
2023/09/18 09:40:26;;;;;;;5.30;2.27;;;;;;;25.96;67.19;98171.38;5092895;28;44054;-81
2023/09/18 09:43:01;;;;;;;2.60;1.90;;;;;;;26.39;65.86;98180.69;5090666;28;42468;-81
2023/09/18 09:45:30;;;;;;;4.00;1.70;;;;;;;26.71;64.26;98191.66;5088751;28;41001;-81
2023/09/18 09:47:58;;;;;;;3.07;1.77;;;;;;;26.91;63.89;98197.03;5073939;28;41288;-79
2023/09/18 09:50:26;;;;;;;4.27;1.87;;;;;;;27.11;63.37;98203.22;5092772;28;42853;-85
2023/09/18 09:52:55;;;;;;;4.50;1.63;;;;;;;27.27;62.31;98229.91;5074483;28;42500;-83
2023/09/18 09:55:28;;;;;;;4.67;1.57;;;;;;;27.15;61.98;98232.47;5091604;28;40207;-81
2023/09/18 09:57:59;;;;;;;4.53;1.50;;;;;;;26.95;62.62;98218.16;5091112;28;41498;-83
2023/09/18 10:00:32;;;;;;;3.07;1.47;;;;;;;26.80;61.60;98236.56;5075174;28;43119;-83
2023/09/18 10:03:02;;;;;;;5.00;3.43;;;;;;;26.48;60.76;98257.31;5077913;28;41495;-82
2023/09/18 10:05:32;;;;;;;3.60;1.50;;;;;;;26.26;61.30;98253.16;5083940;28;39257;-81
2023/09/18 10:08:02;;;;;;;2.80;1.30;;;;;;;26.05;61.71;98260.50;5073762;28;40875;-79
2023/09/18 10:10:33;;;;;;;1.93;1.10;;;;;;;25.75;61.59;98242.94;5092485;28;42462;-81
2023/09/18 10:13:09;;;;;;;3.93;1.20;;;;;;;25.80;61.39;98286.56;5074350;28;42640;-82
2023/09/18 10:15:38;;;;;;;3.10;0.90;;;;;;;25.71;61.87;98288.63;5092514;28;39862;-82
2023/09/18 10:18:14;;;;;;;1.37;1.10;;;;;;;25.44;63.30;98291.47;5092281;28;41937;-82
2023/09/18 10:20:43;;;;;;;3.13;1.17;;;;;;;25.07;65.05;98293.63;5075561;28;42574;-79
2023/09/18 10:23:23;;;;;;;2.07;1.10;;;;;;;24.71;66.22;98291.09;5092958;28;42430;-80
2023/09/18 10:25:56;;;;;;;2.00;1.10;;;;;;;24.40;67.18;98288.81;5075498;28;38840;-80
2023/09/18 10:28:27;;;;;;;4.67;1.17;;;;;;;24.29;68.08;98309.13;5074737;28;40930;-78
2023/09/18 10:30:57;;;;;;;3.47;1.03;;;;;;;24.05;68.67;98300.56;5075460;28;42719;-83
2023/09/18 10:33:26;;;;;;;2.50;1.00;;;;;;;23.97;69.81;98304.25;5074937;28;41082;-84
2023/09/18 10:35:54;;;;;;;2.63;1.40;;;;;;;23.90;70.70;98327.69;5092750;28;40779;-82
2023/09/18 10:38:22;;;;;;;4.07;1.20;;;;;;;23.58;70.56;98312.81;5091988;28;40216;-81
2023/09/18 10:40:52;;;;;;;3.23;1.20;;;;;;;23.40;71.20;98306.94;5091695;28;42771;-81
2023/09/18 10:43:19;;;;;;;1.60;1.07;;;;;;;23.25;72.56;98306.97;5089781;28;41960;-80
2023/09/18 10:45:51;;;;;;;2.83;0.90;;;;;;;23.20;73.03;98329.19;5073818;28;39668;-79
2023/09/18 10:48:20;;;;;;;1.60;1.00;;;;;;;23.04;73.35;98332.09;5090215;28;41798;-81
2023/09/18 10:50:47;;;;;;;3.40;0.90;;;;;;;22.87;74.49;98311.72;5073982;28;42507;-82
2023/09/18 10:53:15;;;;;;;3.13;0.83;;;;;;;22.69;75.96;98303.09;5092195;28;43153;-81
2023/09/18 10:55:44;;;;;;;3.83;1.00;;;;;;;22.54;76.55;98290.44;5074364;28;38603;-84
2023/09/18 10:58:11;;;;;;;2.10;1.20;;;;;;;22.40;76.64;98276.94;5090687;28;40926;-81
2023/09/18 11:00:42;;;;;;;2.10;1.00;;;;;;;22.38;77.59;98284.38;5091078;28;42697;-79
2023/09/18 11:03:14;;;;;;;1.63;1.17;;;;;;;22.33;77.65;98286.81;5074531;28;41456;-81
2023/09/18 11:05:42;;;;;;;1.90;0.90;;;;;;;22.28;77.84;98278.41;5091139;28;39026;-81
2023/09/18 11:08:29;;;;;;;2.37;1.23;;;;;;;22.27;78.35;98280.25;5074017;28;40555;-83
2023/09/18 11:11:04;;;;;;;3.53;1.07;;;;;;;22.24;78.18;98283.34;5090834;28;43968;-82
2023/09/18 11:13:36;;;;;;;1.77;1.03;;;;;;;22.15;78.84;98261.00;5074796;28;41515;-79
2023/09/18 11:16:15;;;;;;;3.73;1.10;;;;;;;22.18;78.42;98274.13;5091677;28;38906;-77
2023/09/18 11:18:47;;;;;;;2.63;1.10;;;;;;;22.28;78.40;98273.84;5091320;28;40967;-79
2023/09/18 11:21:17;;;;;;;3.17;1.10;;;;;;;22.36;79.13;98281.88;5087866;28;42957;-79
2023/09/18 11:23:45;;;;;;;3.27;1.00;;;;;;;22.48;78.27;98291.19;5073301;28;41694;-81
2023/09/18 11:26:16;;;;;;;2.50;1.07;;;;;;;22.61;78.17;98273.53;5074469;28;40042;-82
2023/09/18 11:28:44;;;;;;;2.30;1.07;;;;;;;22.66;78.32;98244.09;5091804;28;40846;-82
2023/09/18 11:31:11;;;;;;;1.50;1.03;;;;;;;22.73;77.73;98277.44;5074847;28;42092;-81
2023/09/18 11:33:44;;;;;;;1.40;1.00;;;;;;;22.73;77.99;98272.03;5092457;28;42370;-77
2023/09/18 11:36:15;;;;;;;3.30;1.50;;;;;;;22.90;77.35;98287.00;5072087;28;39506;-76
2023/09/18 11:38:54;;;;;;;1.87;1.20;;;;;;;23.09;77.80;98296.41;5072888;28;40624;-77
2023/09/18 11:41:24;;;;;;;4.73;1.37;;;;;;;23.12;77.41;98294.16;5089761;28;41893;-77